Time;durP1;ratioP1;P1;durP2;ratioP2;P2;SDS_P1;SDS_P2;PMS_P1;PMS_P2;Temp;Humidity;BMP_temperature;BMP_pressure;BME280_temperature;BME280_humidity;BME280_pressure;Samples;Min_cycle;Max_cycle;Signal;HPM_P1;HPM_P2
2022/09/02 00:01:59;;;;;;;2.60;1.00;;;18.80;99.90;;;;;;5082598;28;20485;-81
2022/09/02 00:04:27;;;;;;;3.33;1.00;;;18.80;99.90;;;;;;5081956;28;20454;-79
2022/09/02 00:06:54;;;;;;;2.60;1.23;;;18.80;99.90;;;;;;5102305;22;20585;-85
2022/09/02 00:09:24;;;;;;;3.33;1.10;;;18.70;99.90;;;;;;5096416;28;20540;-85
2022/09/02 00:11:53;;;;;;;4.53;1.60;;;18.70;99.90;;;;;;5095714;28;21130;-85
2022/09/02 00:14:23;;;;;;;10.53;1.57;;;18.70;99.90;;;;;;5094801;28;20494;-85
2022/09/02 00:16:52;;;;;;;3.17;1.27;;;18.70;99.90;;;;;;5098018;28;20998;-84
2022/09/02 00:19:22;;;;;;;5.60;1.43;;;18.70;99.90;;;;;;5094128;28;20494;-84
2022/09/02 00:21:50;;;;;;;6.57;1.83;;;18.70;99.90;;;;;;5089114;28;20504;-85
2022/09/02 00:24:18;;;;;;;4.03;1.10;;;18.60;99.90;;;;;;5096101;28;20837;-84
2022/09/02 00:26:45;;;;;;;2.20;1.20;;;18.50;99.90;;;;;;5094882;28;20927;-85
2022/09/02 00:29:14;;;;;;;4.77;1.30;;;18.50;99.90;;;;;;5094393;28;20460;-85
2022/09/02 00:31:41;;;;;;;6.20;1.53;;;18.50;99.90;;;;;;5084650;28;20479;-85
2022/09/02 00:34:09;;;;;;;2.60;1.10;;;18.50;99.90;;;;;;5077620;28;20887;-85
2022/09/02 00:36:38;;;;;;;3.40;0.97;;;18.40;99.90;;;;;;5095359;28;20575;-85
2022/09/02 00:39:07;;;;;;;2.90;1.13;;;18.40;99.90;;;;;;5096716;28;20440;-84
2022/09/02 00:41:35;;;;;;;2.77;1.03;;;18.40;99.90;;;;;;5096676;28;20491;-85
2022/09/02 00:44:04;;;;;;;2.63;1.03;;;18.40;99.90;;;;;;5087864;28;20529;-85
2022/09/02 00:46:32;;;;;;;2.77;1.40;;;18.30;99.90;;;;;;5097492;28;20564;-84
2022/09/02 00:49:05;;;;;;;3.63;1.63;;;18.30;99.90;;;;;;5103502;28;20478;-86
2022/09/02 00:51:37;;;;;;;5.63;1.70;;;18.20;99.90;;;;;;5102737;28;20544;-84
2022/09/02 00:54:06;;;;;;;2.70;1.13;;;18.10;99.90;;;;;;5097719;28;20467;-85
2022/09/02 00:56:36;;;;;;;2.67;1.30;;;18.10;99.90;;;;;;5097629;28;20496;-85
2022/09/02 00:59:04;;;;;;;4.27;1.50;;;18.00;99.90;;;;;;5097453;28;20529;-85
2022/09/02 01:01:31;;;;;;;3.00;1.33;;;18.00;99.90;;;;;;5097109;28;20537;-85
2022/09/02 01:03:58;;;;;;;3.33;1.07;;;17.90;99.90;;;;;;5095338;28;20558;-85
2022/09/02 01:06:31;;;;;;;2.50;1.00;;;17.90;99.90;;;;;;5096067;28;20479;-84
2022/09/02 01:09:03;;;;;;;2.30;1.00;;;17.80;99.90;;;;;;5097106;28;20912;-85
2022/09/02 01:11:38;;;;;;;2.30;1.00;;;17.80;99.90;;;;;;5096655;28;20455;-85
2022/09/02 01:14:05;;;;;;;2.73;1.10;;;17.70;99.90;;;;;;5095990;28;20450;-85
2022/09/02 01:16:39;;;;;;;3.17;1.30;;;17.70;99.90;;;;;;5096734;28;20491;-85
2022/09/02 01:19:10;;;;;;;2.10;0.90;;;17.60;99.90;;;;;;5096119;28;20539;-85
2022/09/02 01:21:37;;;;;;;2.50;1.10;;;17.60;99.90;;;;;;5095340;28;20546;-85
2022/09/02 01:24:06;;;;;;;2.87;1.13;;;17.60;99.90;;;;;;5095065;28;20457;-86
2022/09/02 01:26:33;;;;;;;7.17;1.10;;;17.50;99.90;;;;;;5095932;28;20609;-86
2022/09/02 01:29:00;;;;;;;4.17;1.40;;;17.50;99.90;;;;;;5094908;28;20452;-87
2022/09/02 01:31:27;;;;;;;2.80;1.10;;;17.40;99.90;;;;;;5095761;28;20451;-87
2022/09/02 01:33:54;;;;;;;4.23;1.10;;;17.40;99.90;;;;;;5095988;28;20568;-87
2022/09/02 01:36:21;;;;;;;3.33;1.20;;;17.40;99.90;;;;;;5096246;28;20496;-86
2022/09/02 01:38:48;;;;;;;4.00;1.33;;;17.30;99.90;;;;;;5097558;28;20452;-87
2022/09/02 01:41:16;;;;;;;5.03;1.40;;;17.30;99.90;;;;;;5102196;28;20538;-87
2022/09/02 01:43:43;;;;;;;4.43;1.20;;;17.20;99.90;;;;;;5105145;28;20504;-86
2022/09/02 01:46:10;;;;;;;5.90;1.53;;;17.20;99.90;;;;;;5085356;28;20526;-86
2022/09/02 01:48:37;;;;;;;5.13;1.33;;;17.10;99.90;;;;;;5095256;28;20461;-86
2022/09/02 01:51:04;;;;;;;4.70;1.17;;;17.00;99.90;;;;;;5094503;28;20458;-87
2022/09/02 01:53:32;;;;;;;2.70;1.23;;;17.00;99.90;;;;;;5094403;28;20495;-86
2022/09/02 01:56:00;;;;;;;5.07;1.43;;;17.00;99.90;;;;;;5093462;28;21007;-86
2022/09/02 01:58:28;;;;;;;7.40;1.30;;;16.90;99.90;;;;;;5094963;28;20457;-86
2022/09/02 02:00:55;;;;;;;2.53;1.00;;;16.90;99.90;;;;;;5095833;28;20450;-86
2022/09/02 02:03:23;;;;;;;2.60;1.20;;;16.80;99.90;;;;;;5096108;28;20492;-85
2022/09/02 02:05:49;;;;;;;4.27;1.67;;;16.80;99.90;;;;;;5096479;28;20536;-86
2022/09/02 02:08:16;;;;;;;3.93;1.20;;;16.80;99.90;;;;;;5095356;28;20550;-85
2022/09/02 02:10:44;;;;;;;3.40;1.80;;;16.80;99.90;;;;;;5095665;28;20496;-86
2022/09/02 02:13:11;;;;;;;4.60;1.20;;;16.80;99.90;;;;;;5095872;28;20446;-86
2022/09/02 02:15:41;;;;;;;4.37;1.30;;;16.80;99.90;;;;;;5096028;28;20517;-85
2022/09/02 02:18:08;;;;;;;4.73;1.40;;;16.70;99.90;;;;;;5096144;28;20451;-86
2022/09/02 02:20:36;;;;;;;4.27;1.40;;;16.70;99.90;;;;;;5095752;28;21006;-86
2022/09/02 02:23:04;;;;;;;3.10;1.00;;;16.70;99.90;;;;;;5095971;28;20525;-86
2022/09/02 02:25:31;;;;;;;4.10;0.90;;;16.60;99.90;;;;;;5096235;28;20825;-86
2022/09/02 02:27:58;;;;;;;3.07;1.17;;;16.60;99.90;;;;;;5096395;28;20842;-87
2022/09/02 02:30:25;;;;;;;2.67;1.10;;;16.60;99.90;;;;;;5082357;28;20530;-85
2022/09/02 02:32:53;;;;;;;2.20;1.10;;;16.50;99.90;;;;;;5100033;28;20481;-86
2022/09/02 02:35:21;;;;;;;4.20;1.57;;;16.50;99.90;;;;;;5110512;28;20462;-87
2022/09/02 02:37:49;;;;;;;3.17;1.03;;;16.40;99.90;;;;;;5103783;28;20481;-86
2022/09/02 02:40:18;;;;;;;3.43;1.10;;;16.40;99.90;;;;;;5104198;28;20817;-86
2022/09/02 02:42:45;;;;;;;3.27;1.20;;;16.40;99.90;;;;;;5101173;28;20453;-87
2022/09/02 02:45:12;;;;;;;2.80;1.10;;;16.30;99.90;;;;;;5094456;28;20455;-86
2022/09/02 02:47:41;;;;;;;4.50;1.30;;;16.30;99.90;;;;;;5093954;28;20901;-86
2022/09/02 02:50:12;;;;;;;4.10;1.30;;;16.30;99.90;;;;;;5073809;28;20488;-86
2022/09/02 02:52:40;;;;;;;3.37;1.30;;;16.20;99.90;;;;;;5087916;28;20483;-85
2022/09/02 02:55:09;;;;;;;10.03;1.60;;;16.20;99.90;;;;;;5093502;28;20852;-86
2022/09/02 02:57:37;;;;;;;5.23;1.20;;;16.20;99.90;;;;;;5094335;28;20529;-86
2022/09/02 03:00:07;;;;;;;5.03;1.00;;;16.20;99.90;;;;;;5093860;28;20457;-86
2022/09/02 03:02:34;;;;;;;5.97;1.30;;;16.10;99.90;;;;;;5084675;28;20499;-86
2022/09/02 03:05:01;;;;;;;3.93;1.10;;;16.10;99.90;;;;;;5094129;28;20486;-87
2022/09/02 03:07:30;;;;;;;2.67;1.00;;;16.10;99.90;;;;;;5093521;28;20481;-85
2022/09/02 03:09:56;;;;;;;5.23;1.00;;;16.10;99.90;;;;;;5093679;28;20454;-87
2022/09/02 03:12:24;;;;;;;4.10;1.23;;;16.10;99.90;;;;;;5093347;28;20474;-86
2022/09/02 03:14:51;;;;;;;2.77;1.00;;;16.00;99.90;;;;;;5092885;28;20449;-86
2022/09/02 03:17:18;;;;;;;6.50;1.30;;;16.10;99.90;;;;;;5093353;28;20589;-85
2022/09/02 03:19:45;;;;;;;3.80;1.07;;;16.00;99.90;;;;;;5094053;28;20453;-86
2022/09/02 03:22:13;;;;;;;2.33;1.00;;;15.90;99.90;;;;;;5094345;28;20480;-87
2022/09/02 03:24:41;;;;;;;3.07;1.30;;;15.90;99.90;;;;;;5096866;28;20507;-86
2022/09/02 03:27:08;;;;;;;2.63;1.20;;;15.90;99.90;;;;;;5096675;28;20477;-85
2022/09/02 03:29:35;;;;;;;2.77;1.10;;;15.80;99.90;;;;;;5097119;28;20450;-86
2022/09/02 03:32:02;;;;;;;3.43;1.20;;;15.80;99.90;;;;;;5096679;28;20449;-86
2022/09/02 03:34:29;;;;;;;3.80;1.33;;;15.80;99.90;;;;;;5097140;28;20445;-86
2022/09/02 03:36:56;;;;;;;5.27;1.30;;;15.70;99.90;;;;;;5096762;28;20574;-86
2022/09/02 03:39:23;;;;;;;7.17;1.63;;;15.70;99.90;;;;;;5096567;28;20540;-85
2022/09/02 03:41:52;;;;;;;4.03;0.90;;;15.70;99.90;;;;;;5098003;28;20458;-85
2022/09/02 03:44:19;;;;;;;2.63;0.90;;;15.70;99.90;;;;;;5098194;28;20484;-87
2022/09/02 03:46:46;;;;;;;3.70;1.23;;;15.70;99.90;;;;;;5097623;28;20469;-86
2022/09/02 03:49:13;;;;;;;8.83;1.43;;;15.60;99.90;;;;;;5097480;28;20481;-87
2022/09/02 03:51:41;;;;;;;4.20;1.43;;;15.60;99.90;;;;;;5096233;28;20541;-90
2022/09/02 03:54:09;;;;;;;5.43;1.30;;;15.60;99.90;;;;;;5096452;28;20454;-88
2022/09/02 03:56:36;;;;;;;4.57;1.10;;;15.60;99.90;;;;;;5094838;28;20526;-88
2022/09/02 03:59:04;;;;;;;2.90;1.20;;;15.60;99.90;;;;;;5096548;28;20454;-89
2022/09/02 04:01:31;;;;;;;3.20;1.30;;;15.60;99.90;;;;;;5096956;28;20537;-87
2022/09/02 04:03:58;;;;;;;2.37;1.17;;;15.50;99.90;;;;;;5095578;28;20452;-87
2022/09/02 04:06:26;;;;;;;2.50;1.10;;;15.50;99.90;;;;;;5095797;28;20540;-87
2022/09/02 04:08:53;;;;;;;4.33;1.30;;;15.50;99.90;;;;;;5095922;28;20859;-86
2022/09/02 04:11:21;;;;;;;3.27;1.37;;;15.50;99.90;;;;;;5095516;28;20484;-87
2022/09/02 04:13:50;;;;;;;3.80;1.40;;;15.40;99.90;;;;;;5095713;28;20451;-87
2022/09/02 04:23:02;;;;;;;2.87;1.07;;;15.30;99.90;;;;;;5085848;28;20403;-87
2022/09/02 04:25:30;;;;;;;4.67;1.40;;;15.40;99.90;;;;;;5077090;28;20456;-87
2022/09/02 04:27:57;;;;;;;3.20;1.20;;;15.40;99.90;;;;;;5096646;28;20460;-88
2022/09/02 04:30:24;;;;;;;4.60;1.30;;;15.40;99.90;;;;;;5096200;28;20487;-88
2022/09/02 04:32:51;;;;;;;4.80;1.30;;;15.40;99.90;;;;;;5077104;28;20456;-87
2022/09/02 04:35:19;;;;;;;3.30;1.10;;;15.50;99.90;;;;;;5095801;28;20560;-85
2022/09/02 04:37:47;;;;;;;3.57;1.10;;;15.50;99.90;;;;;;5098776;28;20540;-84
2022/09/02 04:40:16;;;;;;;2.87;1.17;;;15.50;99.90;;;;;;5100766;28;20457;-84
2022/09/02 04:42:43;;;;;;;3.03;1.23;;;17.10;99.90;;;;;;5095453;28;20989;-83
2022/09/02 04:45:10;;;;;;;4.67;1.07;;;17.30;99.90;;;;;;5094928;28;20446;-83
2022/09/02 04:47:37;;;;;;;3.90;1.40;;;17.20;99.90;;;;;;5096209;28;20462;-86
2022/09/02 04:50:05;;;;;;;2.83;1.23;;;17.00;99.90;;;;;;5096426;28;20449;-85
2022/09/02 04:52:32;;;;;;;4.67;1.30;;;16.80;99.90;;;;;;5096259;28;20515;-85
2022/09/02 04:54:59;;;;;;;3.67;1.37;;;16.60;99.90;;;;;;5095148;28;20536;-86
2022/09/02 04:57:27;;;;;;;2.20;1.00;;;16.40;99.90;;;;;;5096686;28;21056;-86
2022/09/02 04:59:54;;;;;;;4.50;1.60;;;16.40;99.90;;;;;;5077385;28;20552;-85
2022/09/02 05:02:22;;;;;;;4.50;1.30;;;16.20;99.90;;;;;;5091979;28;20515;-87
2022/09/02 05:04:50;;;;;;;3.20;1.10;;;16.20;99.90;;;;;;5098006;28;20477;-85
2022/09/02 05:07:18;;;;;;;2.83;1.00;;;16.10;99.90;;;;;;5096092;28;20485;-86
2022/09/02 05:09:46;;;;;;;4.40;1.90;;;16.00;99.90;;;;;;5105240;28;20449;-84
2022/09/02 05:12:16;;;;;;;2.67;1.43;;;15.90;99.90;;;;;;5094604;28;20888;-84
2022/09/02 05:14:48;;;;;;;5.13;1.40;;;16.00;99.90;;;;;;5095894;28;20468;-84
2022/09/02 05:17:19;;;;;;;2.73;1.20;;;15.90;99.90;;;;;;5096263;28;20521;-84
2022/09/02 05:19:46;;;;;;;2.53;1.10;;;15.90;99.90;;;;;;5095780;28;20484;-85
2022/09/02 05:22:13;;;;;;;3.73;1.30;;;15.80;99.90;;;;;;5096817;28;20464;-84
2022/09/02 05:24:41;;;;;;;5.33;1.77;;;15.80;99.90;;;;;;5095303;28;20465;-86
2022/09/02 05:27:08;;;;;;;3.63;1.33;;;15.80;99.90;;;;;;5094882;28;20471;-88
2022/09/02 05:29:36;;;;;;;3.87;1.10;;;15.80;99.90;;;;;;5095761;28;20461;-85
2022/09/02 05:32:06;;;;;;;2.90;1.20;;;15.80;99.90;;;;;;5095167;28;20507;-85
2022/09/02 05:34:36;;;;;;;3.10;1.30;;;15.90;99.90;;;;;;5083475;28;20448;-84
2022/09/02 05:37:06;;;;;;;3.03;1.50;;;15.90;99.90;;;;;;5095189;28;20478;-84
2022/09/02 05:39:33;;;;;;;5.33;1.60;;;16.00;99.90;;;;;;5095804;28;20465;-87
2022/09/02 05:42:00;;;;;;;4.10;1.30;;;16.00;99.90;;;;;;5094858;28;20473;-84
2022/09/02 05:44:30;;;;;;;5.83;1.83;;;16.10;99.90;;;;;;5094762;28;20451;-84
2022/09/02 05:46:56;;;;;;;3.30;1.20;;;16.20;99.90;;;;;;5091174;28;20480;-85
2022/09/02 05:49:28;;;;;;;2.80;1.07;;;16.20;99.90;;;;;;5089236;28;20514;-84
2022/09/02 05:52:19;;;;;;;2.67;1.20;;;16.20;99.90;;;;;;5081379;28;21094;-84
2022/09/02 05:54:48;;;;;;;3.70;1.67;;;16.30;99.90;;;;;;5085669;28;20824;-83
2022/09/02 05:57:17;;;;;;;4.83;1.30;;;16.40;99.90;;;;;;5082162;28;20481;-84
2022/09/02 06:00:00;;;;;;;2.93;1.23;;;16.50;99.90;;;;;;5093230;28;20882;-83
2022/09/02 06:02:27;;;;;;;2.60;1.33;;;16.50;99.90;;;;;;5073591;28;20470;-84
2022/09/02 06:04:55;;;;;;;5.13;1.23;;;16.60;99.90;;;;;;5086140;28;20473;-84
2022/09/02 06:07:25;;;;;;;3.87;1.30;;;16.70;99.90;;;;;;5083301;28;20485;-85
2022/09/02 06:09:52;;;;;;;4.50;1.50;;;16.70;99.90;;;;;;5084576;28;20495;-85
2022/09/02 06:12:20;;;;;;;3.83;1.40;;;16.70;99.90;;;;;;5077989;28;20860;-84
2022/09/02 06:14:50;;;;;;;5.83;1.53;;;16.70;99.90;;;;;;5090500;28;20488;-89
2022/09/02 06:17:17;;;;;;;4.70;1.43;;;16.80;99.90;;;;;;5091466;28;20489;-84
2022/09/02 06:19:48;;;;;;;5.10;1.37;;;16.80;99.90;;;;;;5094000;28;20891;-84
2022/09/02 06:22:16;;;;;;;4.63;1.53;;;16.90;99.90;;;;;;5081807;28;20464;-84
2022/09/02 06:24:45;;;;;;;2.53;1.13;;;16.90;99.90;;;;;;5081668;28;20438;-84
2022/09/02 06:27:17;;;;;;;8.93;1.47;;;17.00;99.90;;;;;;5094981;28;20480;-86
2022/09/02 06:29:44;;;;;;;3.23;1.33;;;17.00;99.90;;;;;;5090939;28;20903;-85
2022/09/02 06:32:11;;;;;;;3.33;1.43;;;17.10;99.90;;;;;;5085827;28;20816;-86
2022/09/02 06:34:40;;;;;;;4.13;1.50;;;17.10;99.90;;;;;;5094176;28;20478;-86
2022/09/02 06:37:07;;;;;;;5.70;1.30;;;17.20;99.90;;;;;;5087560;28;20489;-88
2022/09/02 06:39:36;;;;;;;2.63;1.60;;;17.20;99.90;;;;;;5091110;28;20450;-86
2022/09/02 06:42:04;;;;;;;6.67;1.70;;;17.30;99.90;;;;;;5096212;28;20449;-86
2022/09/02 06:44:31;;;;;;;4.57;1.40;;;17.30;99.90;;;;;;5098320;28;20442;-84
2022/09/02 06:46:59;;;;;;;5.10;1.60;;;17.30;99.90;;;;;;5090566;28;20507;-85
2022/09/02 06:49:28;;;;;;;3.23;1.47;;;17.40;99.90;;;;;;5087154;28;20944;-85
2022/09/02 06:51:56;;;;;;;4.40;1.60;;;17.50;99.90;;;;;;5090799;28;20465;-86
2022/09/02 06:54:23;;;;;;;4.07;1.20;;;17.50;99.90;;;;;;5078840;28;20956;-86
2022/09/02 06:56:52;;;;;;;4.50;1.50;;;17.60;99.90;;;;;;5094833;28;20494;-86
2022/09/02 06:59:21;;;;;;;3.63;1.33;;;17.60;99.90;;;;;;5083322;28;20456;-86
2022/09/02 07:01:49;;;;;;;3.50;1.23;;;17.70;99.90;;;;;;5092134;28;20881;-87
2022/09/02 07:07:01;;;;;;;4.33;1.40;;;17.70;99.90;;;;;;5095281;28;20963;-85
2022/09/02 07:09:29;;;;;;;5.50;1.70;;;17.80;99.90;;;;;;5103044;28;20447;-86
2022/09/02 07:11:59;;;;;;;6.00;1.47;;;17.80;99.90;;;;;;5101057;28;20501;-85
2022/09/02 07:14:27;;;;;;;4.70;1.83;;;17.90;99.90;;;;;;5098414;28;20501;-86
2022/09/02 07:16:56;;;;;;;6.37;1.80;;;18.00;99.90;;;;;;5098100;28;20477;-86
2022/09/02 07:19:25;;;;;;;5.90;1.30;;;18.10;99.90;;;;;;5094882;28;20462;-85
2022/09/02 07:21:52;;;;;;;4.30;1.27;;;18.20;99.90;;;;;;5098141;28;20457;-84
2022/09/02 07:24:19;;;;;;;4.03;1.33;;;19.30;99.90;;;;;;5097772;28;20486;-84
2022/09/02 07:26:47;;;;;;;4.60;1.50;;;20.00;99.90;;;;;;5096824;28;20462;-86
2022/09/02 07:29:15;;;;;;;8.33;1.70;;;20.30;99.90;;;;;;5097193;28;20830;-86
2022/09/02 07:31:45;;;;;;;5.37;1.60;;;20.10;99.90;;;;;;5096791;28;20485;-86
2022/09/02 07:34:13;;;;;;;5.20;1.50;;;19.90;99.90;;;;;;5095302;28;20484;-85
2022/09/02 07:36:41;;;;;;;10.87;1.67;;;19.80;99.90;;;;;;5081247;28;20486;-85
2022/09/02 07:39:10;;;;;;;3.50;1.27;;;19.80;99.90;;;;;;5087286;28;20462;-84
2022/09/02 07:41:40;;;;;;;7.07;1.90;;;19.90;99.90;;;;;;5082515;28;20768;-85
2022/09/02 07:44:07;;;;;;;4.47;1.53;;;19.80;99.90;;;;;;5094867;28;20957;-85
2022/09/02 07:46:37;;;;;;;4.77;1.33;;;20.00;99.90;;;;;;5095006;28;20556;-84
2022/09/02 07:49:08;;;;;;;4.43;2.13;;;20.50;99.90;;;;;;5088435;28;20537;-84
2022/09/02 07:51:37;;;;;;;7.10;1.53;;;20.80;99.90;;;;;;5099851;28;20897;-85
2022/09/02 07:54:09;;;;;;;5.17;1.73;;;21.00;99.90;;;;;;5105103;28;20450;-87
2022/09/02 07:56:36;;;;;;;6.00;2.10;;;21.00;99.90;;;;;;5093761;28;20504;-87
2022/09/02 07:59:03;;;;;;;6.67;2.10;;;20.90;99.90;;;;;;5097807;28;20489;-86
2022/09/02 08:01:33;;;;;;;5.03;1.80;;;20.90;99.90;;;;;;5097433;28;20486;-87
2022/09/02 08:04:01;;;;;;;7.77;2.13;;;20.70;99.90;;;;;;5092351;28;20486;-86
2022/09/02 08:06:29;;;;;;;4.87;1.50;;;20.60;99.90;;;;;;5088185;28;20842;-86
2022/09/02 08:08:56;;;;;;;7.93;1.60;;;20.60;99.90;;;;;;5087107;28;20451;-85
2022/09/02 08:11:23;;;;;;;6.67;3.27;;;20.60;99.90;;;;;;5087406;28;20900;-85
2022/09/02 08:13:51;;;;;;;5.73;1.90;;;20.60;99.90;;;;;;5075005;28;20450;-87
2022/09/02 08:16:18;;;;;;;11.03;2.50;;;20.70;99.90;;;;;;5089420;28;20477;-87
2022/09/02 08:18:47;;;;;;;4.37;1.70;;;20.70;99.90;;;;;;5077375;28;20984;-86
2022/09/02 08:21:15;;;;;;;5.83;1.77;;;20.80;99.90;;;;;;5088977;28;20466;-85
2022/09/02 08:23:42;;;;;;;5.30;1.73;;;20.80;99.90;;;;;;5073488;28;20455;-86
2022/09/02 08:26:10;;;;;;;3.83;1.47;;;20.90;99.90;;;;;;5086969;28;20880;-87
2022/09/02 08:28:39;;;;;;;5.87;1.70;;;20.80;99.90;;;;;;5093177;28;20451;-86
2022/09/02 08:31:07;;;;;;;3.93;1.80;;;20.90;99.90;;;;;;5094168;28;20970;-85
2022/09/02 08:33:34;;;;;;;4.93;2.07;;;21.00;99.90;;;;;;5090298;28;21408;-86
2022/09/02 08:36:04;;;;;;;3.33;1.50;;;20.90;99.90;;;;;;5090481;28;21202;-87
2022/09/02 08:38:32;;;;;;;7.07;1.60;;;21.10;99.90;;;;;;5085599;28;21751;-87
2022/09/02 08:41:02;;;;;;;5.67;1.83;;;21.20;99.90;;;;;;5075391;28;20883;-85
2022/09/02 08:43:37;;;;;;;6.53;1.63;;;21.20;99.90;;;;;;5074678;28;20455;-86
2022/09/02 08:46:05;;;;;;;5.47;2.00;;;21.30;99.90;;;;;;5090987;28;20473;-88
2022/09/02 08:48:39;;;;;;;6.13;1.90;;;21.30;99.90;;;;;;5091439;28;20496;-89
2022/09/02 08:51:09;;;;;;;10.53;1.90;;;21.30;99.90;;;;;;5083585;28;20456;-87
2022/09/02 08:53:49;;;;;;;11.50;2.73;;;21.40;99.90;;;;;;5085207;28;20538;-85
2022/09/02 08:56:17;;;;;;;8.37;2.07;;;21.50;99.90;;;;;;5087644;28;20508;-86
2022/09/02 08:58:48;;;;;;;10.50;2.17;;;21.50;99.90;;;;;;5089460;28;20482;-89
2022/09/02 09:01:24;;;;;;;8.97;2.20;;;21.50;99.90;;;;;;5093796;28;20450;-85
2022/09/02 09:04:17;;;;;;;4.30;1.90;;;21.60;99.90;;;;;;5086640;28;20482;-86
2022/09/02 09:06:59;;;;;;;10.23;3.53;;;21.60;99.90;;;;;;5088987;28;20894;-86
2022/09/02 09:09:36;;;;;;;11.13;3.13;;;21.60;99.90;;;;;;5084576;28;20445;-86
2022/09/02 09:12:12;;;;;;;8.13;2.63;;;21.70;99.90;;;;;;5094790;28;20529;-85
2022/09/02 09:14:47;;;;;;;14.60;2.63;;;21.70;99.90;;;;;;5087052;28;20443;-88
2022/09/02 09:17:26;;;;;;;9.13;2.20;;;21.80;99.90;;;;;;5084330;28;20500;-86
2022/09/02 09:19:57;;;;;;;5.70;2.30;;;21.80;99.90;;;;;;5087912;28;20548;-87
2022/09/02 09:22:29;;;;;;;7.10;1.70;;;21.80;99.90;;;;;;5086388;28;20477;-87
2022/09/02 09:24:58;;;;;;;3.80;1.70;;;22.00;99.90;;;;;;5075992;28;20447;-87
2022/09/02 09:27:27;;;;;;;12.77;2.47;;;22.10;99.90;;;;;;5083573;28;20497;-88
2022/09/02 09:29:54;;;;;;;17.93;5.30;;;22.20;99.90;;;;;;5091929;28;20492;-87
2022/09/02 09:32:26;;;;;;;4.73;1.60;;;22.20;99.90;;;;;;5091389;28;20533;-86
2022/09/02 09:35:06;;;;;;;7.90;2.10;;;22.40;99.90;;;;;;5097413;28;20454;-89
2022/09/02 09:37:38;;;;;;;4.37;1.43;;;22.50;99.90;;;;;;5095143;28;20477;-88
2022/09/02 09:43:12;;;;;;;7.13;1.97;;;22.80;99.90;;;;;;5131521;27;20567;-86
2022/09/02 09:45:41;;;;;;;6.20;1.90;;;23.30;99.90;;;;;;5135886;27;20517;-87
2022/09/02 09:48:22;;;;;;;4.03;1.70;;;23.60;99.90;;;;;;5128943;27;20459;-86
2022/09/02 09:51:17;;;;;;;4.33;1.73;;;23.80;99.90;;;;;;5130726;28;20448;-86
2022/09/02 09:53:45;;;;;;;5.10;2.07;;;24.10;99.90;;;;;;5141432;27;20859;-85
2022/09/02 09:56:37;;;;;;;4.50;2.23;;;24.30;99.90;;;;;;5134726;27;20504;-87
2022/09/02 09:59:08;;;;;;;6.83;1.87;;;24.80;99.90;;;;;;5112155;27;20528;-85
2022/09/02 10:01:35;;;;;;;8.23;1.70;;;25.30;99.90;;;;;;5131622;27;20487;-88
2022/09/02 10:04:06;;;;;;;5.70;1.60;;;25.60;99.90;;;;;;5131565;28;20828;-88
2022/09/02 10:06:42;;;;;;;5.93;2.43;;;26.00;99.90;;;;;;5137139;27;20480;-89
2022/09/02 10:09:32;;;;;;;8.57;2.20;;;26.40;99.90;;;;;;5125409;27;20451;-87
2022/09/02 10:12:00;;;;;;;6.63;2.37;;;26.60;99.90;;;;;;5122358;28;20470;-87
2022/09/02 10:14:44;;;;;;;2.87;1.67;;;27.00;99.90;;;;;;5123434;27;20951;-87
2022/09/02 10:17:24;;;;;;;3.80;1.50;;;27.00;99.90;;;;;;5131471;28;20544;-86
2022/09/02 10:19:57;;;;;;;6.60;1.73;;;26.90;99.90;;;;;;5119647;28;20448;-85
2022/09/02 10:22:58;;;;;;;10.40;1.83;;;26.40;99.90;;;;;;5131935;27;20488;-85
2022/09/02 10:25:33;;;;;;;4.40;1.60;;;25.90;99.90;;;;;;5137370;27;20442;-85
2022/09/02 10:28:09;;;;;;;6.60;2.40;;;25.60;99.90;;;;;;5153574;27;20842;-88
2022/09/02 10:30:45;;;;;;;7.17;2.40;;;25.50;99.90;;;;;;5146938;27;20539;-87
2022/09/02 10:33:24;;;;;;;3.60;1.33;;;25.30;99.90;;;;;;5131617;27;20454;-87
2022/09/02 10:35:56;;;;;;;4.63;1.90;;;25.50;99.90;;;;;;5115016;28;20528;-85
2022/09/02 10:38:36;;;;;;;4.40;1.90;;;25.50;99.90;;;;;;5124034;27;20479;-84
2022/09/02 10:41:14;;;;;;;3.40;1.47;;;25.30;99.90;;;;;;5136880;27;20555;-86
2022/09/02 10:43:58;;;;;;;3.30;1.70;;;25.50;99.90;;;;;;5142887;27;20447;-86
2022/09/02 10:46:32;;;;;;;3.73;1.30;;;25.60;99.90;;;;;;5152208;27;20496;-86
2022/09/02 10:49:04;;;;;;;4.00;1.63;;;25.90;99.90;;;;;;5137150;27;20455;-86
2022/09/02 10:51:40;;;;;;;3.53;1.40;;;25.70;99.90;;;;;;5151454;27;20436;-87
2022/09/02 10:54:20;;;;;;;4.47;1.60;;;25.60;99.90;;;;;;5133230;27;20539;-85
2022/09/02 10:56:53;;;;;;;5.73;1.43;;;25.40;99.90;;;;;;5125248;27;20507;-86
2022/09/02 10:59:24;;;;;;;5.10;1.77;;;25.20;99.90;;;;;;5128226;27;20429;-88
2022/09/02 11:01:57;;;;;;;3.30;1.47;;;25.00;99.90;;;;;;5124821;27;20520;-83
2022/09/02 11:04:36;;;;;;;5.10;1.97;;;24.80;99.90;;;;;;5126775;27;20877;-84
2022/09/02 11:07:05;;;;;;;4.10;1.70;;;24.70;99.90;;;;;;5119897;27;20469;-87
2022/09/02 11:09:37;;;;;;;3.50;1.43;;;24.50;99.90;;;;;;5138206;27;20461;-84
2022/09/02 11:12:09;;;;;;;5.47;1.67;;;24.40;99.90;;;;;;5135748;27;20441;-86
2022/09/02 11:14:47;;;;;;;3.23;1.50;;;24.40;99.90;;;;;;5138178;27;20444;-85
2022/09/02 11:17:22;;;;;;;4.50;1.50;;;24.40;99.90;;;;;;5125968;27;20476;-87
2022/09/02 11:19:55;;;;;;;7.30;1.50;;;24.50;99.90;;;;;;5125570;27;20444;-85
2022/09/02 11:22:28;;;;;;;3.37;1.60;;;24.60;99.90;;;;;;5122327;28;20495;-85
2022/09/02 11:25:00;;;;;;;3.43;1.67;;;24.70;99.90;;;;;;5139715;27;20536;-86
2022/09/02 11:27:33;;;;;;;3.90;1.33;;;24.70;99.90;;;;;;5136027;27;20469;-86
2022/09/02 11:30:05;;;;;;;2.70;1.40;;;24.70;99.90;;;;;;5130548;27;20445;-84
2022/09/02 11:32:41;;;;;;;3.63;1.23;;;24.80;99.90;;;;;;5107389;27;20588;-83
2022/09/02 11:35:14;;;;;;;5.03;1.60;;;24.80;99.90;;;;;;5116215;28;20532;-86
2022/09/02 11:37:45;;;;;;;3.70;1.23;;;24.90;99.90;;;;;;5133378;27;20452;-84
2022/09/02 11:40:19;;;;;;;3.23;1.53;;;25.30;99.90;;;;;;5118422;28;20900;-87
2022/09/02 11:43:03;;;;;;;3.23;1.50;;;26.00;99.90;;;;;;5119887;28;20484;-85
2022/09/02 11:46:06;;;;;;;3.73;1.50;;;26.10;99.90;;;;;;5118105;28;20518;-86
2022/09/02 11:49:00;;;;;;;5.20;1.43;;;26.40;99.90;;;;;;5115484;27;20453;-85
2022/09/02 11:51:42;;;;;;;2.53;1.37;;;27.00;99.90;;;;;;5118114;27;20890;-84
2022/09/02 11:54:13;;;;;;;3.00;1.70;;;27.30;99.90;;;;;;5138559;27;20439;-86
2022/09/02 11:56:44;;;;;;;2.43;1.10;;;27.30;99.90;;;;;;5130808;27;20468;-87
2022/09/02 11:59:20;;;;;;;3.50;1.27;;;27.20;99.90;;;;;;5137708;27;20795;-86
2022/09/02 12:01:49;;;;;;;2.30;1.47;;;27.00;99.90;;;;;;5118198;27;20508;-86
2022/09/02 12:04:26;;;;;;;2.87;1.30;;;26.90;99.90;;;;;;5112015;28;20457;-86
2022/09/02 12:07:37;;;;;;;2.20;1.30;;;26.70;99.90;;;;;;5117430;27;20479;-86
2022/09/02 12:10:31;;;;;;;3.00;1.27;;;26.60;98.00;;;;;;5114372;27;20529;-84
2022/09/02 12:13:08;;;;;;;4.17;1.33;;;26.80;99.90;;;;;;5116833;27;20487;-84
2022/09/02 12:15:35;;;;;;;2.70;1.10;;;27.60;99.90;;;;;;5109798;28;20533;-87
2022/09/02 12:18:29;;;;;;;4.10;1.80;;;28.10;99.90;;;;;;5109459;27;20512;-87
2022/09/02 12:21:10;;;;;;;2.30;1.00;;;28.70;99.90;;;;;;5114485;27;20445;-86
2022/09/02 12:24:08;;;;;;;2.50;1.10;;;29.40;92.50;;;;;;5109468;27;20485;-85
2022/09/02 12:27:11;;;;;;;5.60;1.40;;;30.20;95.50;;;;;;5113433;27;21038;-89
2022/09/02 12:29:38;;;;;;;2.53;1.10;;;30.80;94.90;;;;;;5108549;28;20470;-86
2022/09/02 12:32:05;;;;;;;3.10;1.43;;;31.20;90.30;;;;;;5119349;27;20488;-88
2022/09/02 12:35:07;;;;;;;3.43;1.20;;;31.10;87.10;;;;;;5111829;28;20463;-85
2022/09/02 12:37:56;;;;;;;2.50;1.27;;;31.50;89.20;;;;;;5115525;27;20518;-86
2022/09/02 12:40:34;;;;;;;2.63;1.47;;;31.80;90.60;;;;;;5118343;27;20767;-88
2022/09/02 12:43:06;;;;;;;2.60;1.20;;;31.70;83.20;;;;;;5115906;27;20507;-87
2022/09/02 12:45:41;;;;;;;5.83;1.40;;;31.80;80.10;;;;;;5114482;28;20457;-86
2022/09/02 12:48:12;;;;;;;2.30;1.10;;;32.10;76.40;;;;;;5115897;27;20460;-86
2022/09/02 12:50:54;;;;;;;2.90;1.50;;;31.70;65.60;;;;;;5116193;28;20980;-86
2022/09/02 12:53:32;;;;;;;1.97;1.10;;;31.90;74.00;;;;;;5112373;27;20448;-89
2022/09/02 12:56:05;;;;;;;2.67;1.27;;;32.00;73.80;;;;;;5124011;27;20473;-88
2022/09/02 12:58:35;;;;;;;6.83;1.30;;;32.10;74.70;;;;;;5116704;28;20937;-87
2022/09/02 13:01:12;;;;;;;3.30;1.30;;;32.10;74.50;;;;;;5130168;27;20486;-86
2022/09/02 13:03:58;;;;;;;2.83;1.70;;;32.20;73.60;;;;;;5124915;27;20853;-86
2022/09/02 13:06:35;;;;;;;2.00;1.07;;;32.30;67.10;;;;;;5108962;28;20487;-85
2022/09/02 13:09:37;;;;;;;4.73;1.40;;;31.90;64.80;;;;;;5113733;28;20898;-85
2022/09/02 13:12:44;;;;;;;4.50;1.30;;;31.50;63.70;;;;;;5116639;27;20448;-86
2022/09/02 13:15:30;;;;;;;2.20;1.20;;;30.40;65.00;;;;;;5116546;27;20485;-85
2022/09/02 13:18:54;;;;;;;2.57;1.40;;;29.90;66.30;;;;;;5114324;28;20445;-88
2022/09/02 13:22:05;;;;;;;2.63;1.10;;;30.50;71.40;;;;;;5036733;28;20477;-86